createdAt,value
2018-08-06T00:00:02.886Z,18.4
2018-08-06T00:15:03.231Z,18.4
2018-08-06T00:30:02.670Z,18.3
2018-08-06T00:45:02.964Z,18.2
2018-08-06T01:00:02.283Z,18.2
2018-08-06T01:15:02.584Z,18.2
2018-08-06T01:30:02.997Z,18.1
2018-08-06T01:45:02.367Z,18.1
2018-08-06T02:00:02.687Z,18
2018-08-06T02:15:03.179Z,17.9
2018-08-06T02:30:02.584Z,17.9
2018-08-06T02:45:02.871Z,17.8
2018-08-06T03:00:03.271Z,17.8
2018-08-06T03:15:02.565Z,17.8
2018-08-06T03:30:02.992Z,17.7
2018-08-06T03:45:02.330Z,17.6
2018-08-06T04:00:02.874Z,17.6
2018-08-06T04:15:03.179Z,17.5
2018-08-06T04:30:02.576Z,17.5
2018-08-06T04:45:02.904Z,17.4
2018-08-06T05:00:03.237Z,17.4
2018-08-06T05:15:02.569Z,17.4
2018-08-06T05:30:02.973Z,17.4
2018-08-06T05:45:02.273Z,17.4
2018-08-06T06:00:02.583Z,17.3
2018-08-06T06:15:02.893Z,17.3
2018-08-06T06:30:02.511Z,17.3
2018-08-06T06:45:02.862Z,17.3
2018-08-06T07:00:03.268Z,17.3
2018-08-06T07:15:02.686Z,17.3
2018-08-06T07:30:03.080Z,17.3
2018-08-06T07:45:02.395Z,17.3
2018-08-06T08:00:02.706Z,17.3
2018-08-06T08:15:02.994Z,17.4
2018-08-06T08:30:02.598Z,17.4
2018-08-06T08:45:03.223Z,17.4
2018-08-06T09:00:02.958Z,17.4
2018-08-06T09:15:03.331Z,17.5
2018-08-06T09:30:02.792Z,17.6
2018-08-06T09:45:03.130Z,17.6
2018-08-06T10:00:02.704Z,17.7
2018-08-06T10:15:03.025Z,17.8
2018-08-06T10:30:02.453Z,17.9
2018-08-06T10:45:02.760Z,17.9
2018-08-06T11:00:03.182Z,18.1
2018-08-06T11:15:02.499Z,18.1
2018-08-06T11:30:02.908Z,18.2
2018-08-06T11:45:03.374Z,18.3
2018-08-06T12:00:02.766Z,18.4
2018-08-06T12:15:03.270Z,18.6
2018-08-06T12:30:02.807Z,18.6
2018-08-06T12:45:03.146Z,18.7
2018-08-06T13:00:02.496Z,18.8
2018-08-06T13:15:02.793Z,18.9
2018-08-06T13:30:03.553Z,18.9
2018-08-06T13:45:02.892Z,19
2018-08-06T14:00:03.253Z,19.1
2018-08-06T14:15:02.563Z,19.1
2018-08-06T14:30:02.985Z,19.2
2018-08-06T14:45:02.310Z,19.2
2018-08-06T15:00:02.918Z,19.3
2018-08-06T15:15:03.229Z,19.4
2018-08-06T15:30:02.633Z,19.4
2018-08-06T15:45:02.990Z,19.4
2018-08-06T16:00:02.289Z,19.4
2018-08-06T16:15:02.606Z,19.5
2018-08-06T16:30:02.990Z,19.5
2018-08-06T16:45:02.968Z,19.5
2018-08-06T17:00:03.605Z,19.5
2018-08-06T17:15:02.933Z,19.5
2018-08-06T17:30:02.368Z,19.5
2018-08-06T17:45:02.782Z,19.5
2018-08-06T18:00:03.097Z,19.5
2018-08-06T18:15:02.439Z,19.4
2018-08-06T18:30:02.855Z,19.4
2018-08-06T18:45:03.190Z,19.4
2018-08-06T19:00:03.592Z,19.4
2018-08-06T19:15:03.010Z,19.4
2018-08-06T19:30:02.448Z,19.3
2018-08-06T19:45:02.760Z,19.3
2018-08-06T20:00:03.080Z,19.2
2018-08-06T20:15:02.359Z,19.2
2018-08-06T20:30:02.773Z,19.2
2018-08-06T20:45:03.049Z,19.1
2018-08-06T21:00:02.389Z,19.1
2018-08-06T21:15:02.693Z,19.1
2018-08-06T21:30:03.071Z,19.1
2018-08-06T21:45:02.471Z,19
2018-08-06T22:00:02.894Z,18.9
2018-08-06T22:15:03.233Z,18.9
2018-08-06T22:30:02.632Z,18.9
2018-08-06T22:45:02.973Z,18.8
2018-08-06T23:00:02.288Z,18.8
2018-08-06T23:15:02.594Z,18.7
2018-08-06T23:30:02.976Z,18.6
2018-08-06T23:45:02.312Z,18.6
